createdAt,value
2017-05-08T04:24:07.189Z,60.26
2017-05-08T04:25:46.252Z,60.08
2017-05-08T04:27:17.275Z,59.9
2017-05-08T04:28:44.010Z,59.77
2017-05-08T04:30:13.817Z,59.66
2017-05-08T04:33:15.294Z,59.5
2017-05-08T04:34:52.042Z,59.44
2017-05-08T04:36:31.249Z,59.38
2017-05-08T04:38:03.043Z,59.31
2017-05-08T04:41:11.647Z,59.22
2017-05-08T04:42:42.499Z,59.18
2017-05-08T04:44:12.646Z,59.18
2017-05-08T04:45:53.752Z,59.14
2017-05-08T04:47:24.564Z,59.13
2017-05-08T04:48:57.159Z,59.12
2017-05-08T04:51:38.144Z,59.12
2017-05-08T04:53:37.442Z,59.09
2017-05-08T04:55:25.989Z,58.98
2017-05-08T04:58:01.641Z,58.83
2017-05-08T06:29:03.527Z,59.08
2017-05-08T06:30:50.876Z,58.96
2017-05-08T06:32:18.269Z,58.78
2017-05-08T06:35:25.707Z,58.46
2017-05-08T06:37:14.125Z,58.47
2017-05-08T06:38:39.464Z,58.46
2017-05-08T06:40:05.484Z,58.38
2017-05-08T06:41:32.422Z,58.27
2017-05-08T06:44:51.007Z,58.25
2017-05-08T06:46:18.820Z,58.15
2017-05-08T06:47:43.779Z,58.08
2017-05-08T06:49:19.275Z,58.08
2017-05-08T06:50:59.658Z,57.94
2017-05-08T06:52:29.811Z,57.78
2017-05-08T06:53:57.500Z,57.68
2017-05-08T06:55:23.336Z,57.59
2017-05-08T06:56:52.161Z,57.58
2017-05-08T07:32:13.353Z,57.52
2017-05-08T07:45:57.623Z,56.76
2017-05-08T07:49:06.826Z,56.7
2017-05-08T07:52:06.099Z,56.67
2017-05-08T07:53:32.191Z,56.53
2017-05-08T07:55:00.093Z,56.4
2017-05-08T07:56:32.378Z,56.28
2017-05-08T07:59:53.380Z,55.91
2017-05-08T08:01:29.112Z,55.76
2017-05-08T08:02:58.963Z,55.69
2017-05-08T08:06:18.311Z,56.05
2017-05-08T08:08:03.746Z,56.18
2017-05-08T08:09:48.245Z,56.09
2017-05-08T08:11:15.842Z,56.06
2017-05-08T08:12:52.053Z,56
2017-05-08T08:15:39.467Z,55.94
2017-05-08T08:17:38.569Z,55.91
2017-05-08T08:19:05.783Z,55.97
2017-05-08T08:20:48.531Z,55.93
2017-05-08T08:22:34.824Z,55.76
2017-05-08T08:24:07.397Z,55.56
2017-05-08T08:30:40.396Z,55.6
2017-05-08T08:32:06.963Z,55.63
2017-05-08T08:33:44.027Z,55.73
2017-05-08T08:35:24.080Z,55.85
2017-05-08T08:37:19.170Z,56.14
2017-05-08T08:38:52.547Z,56.28
2017-05-08T08:40:22.263Z,56.43
2017-05-08T08:42:01.391Z,56.57
2017-05-08T08:43:37.750Z,56.64
2017-05-08T08:45:11.551Z,56.79
2017-05-08T08:46:41.409Z,56.84
2017-05-08T08:48:10.139Z,56.85
2017-05-08T08:49:41.278Z,56.94
2017-05-08T08:52:27.705Z,56.92
2017-05-08T08:54:12.029Z,56.91
2017-05-08T08:55:43.469Z,56.93
2017-05-08T08:57:26.148Z,56.85
2017-05-08T09:00:21.509Z,56.85
2017-05-08T09:01:58.521Z,56.91
2017-05-08T09:04:00.735Z,56.88
2017-05-08T09:12:25.211Z,56.55
2017-05-08T09:15:15.461Z,56.14
2017-05-08T09:16:45.240Z,55.96
2017-05-08T09:18:12.838Z,55.73
2017-05-08T09:19:52.494Z,55.34
2017-05-08T09:21:30.647Z,55.09
2017-05-08T09:23:05.307Z,55.06
2017-05-08T09:26:02.234Z,54.83
2017-05-08T09:29:05.023Z,55.03
2017-05-08T09:32:03.784Z,54.82
2017-05-08T09:33:35.364Z,54.84
2017-05-08T09:35:06.912Z,55.23
2017-05-08T09:36:44.808Z,55.45
2017-05-08T09:38:23.830Z,55.46
2017-05-08T09:39:53.535Z,55.28
2017-05-08T09:41:22.112Z,55.11
2017-05-08T09:42:52.944Z,55.12
2017-05-08T09:44:21.009Z,55.06
2017-05-08T09:45:55.833Z,55.11
2017-05-08T09:47:24.001Z,55.21
2017-05-08T09:49:12.283Z,54.99
2017-05-08T09:51:10.002Z,54.77
2017-05-08T09:56:28.607Z,53.69
2017-05-08T09:58:33.432Z,53.34
2017-05-08T10:00:09.524Z,53.12
2017-05-08T10:10:02.136Z,53.06
2017-05-08T10:11:40.566Z,53.13
2017-05-08T10:14:10.175Z,53.1
2017-05-08T10:17:24.216Z,52.67
2017-05-08T10:19:18.405Z,52.44
2017-05-08T10:20:50.464Z,52.28
2017-05-08T10:22:20.368Z,52.4
2017-05-08T10:23:49.464Z,52.76
2017-05-08T10:25:15.256Z,53.11
2017-05-08T10:26:42.564Z,53.27
2017-05-08T10:28:21.956Z,53
2017-05-08T10:31:06.925Z,52.24
2017-05-08T10:32:35.401Z,51.91
2017-05-08T10:34:10.737Z,51.65
2017-05-08T10:35:50.132Z,51.33
2017-05-08T10:37:21.514Z,51.06
2017-05-08T10:40:48.741Z,51.03
2017-05-08T10:42:26.773Z,51.18
2017-05-08T10:45:36.833Z,51.39
2017-05-08T10:47:19.336Z,51.26
2017-05-08T10:50:29.615Z,51.13
2017-05-08T10:51:57.358Z,51.07
2017-05-08T10:53:30.442Z,51.2
2017-05-08T10:55:00.554Z,51.42
2017-05-08T10:56:41.012Z,51.8
2017-05-08T10:58:11.229Z,52.23
2017-05-08T11:01:44.239Z,52.69
2017-05-08T11:03:15.244Z,52.46
2017-05-08T11:06:09.457Z,52.19
2017-05-08T11:31:31.651Z,54.89
2017-05-08T11:34:55.020Z,53.34
2017-05-08T11:38:11.959Z,53.09
2017-05-08T11:39:49.580Z,53.37
2017-05-08T11:41:26.284Z,53.6
2017-05-08T11:42:52.419Z,53.6
2017-05-08T11:44:34.206Z,53.81
2017-05-08T11:46:03.383Z,53.67
2017-05-08T11:47:34.434Z,53.5
2017-05-08T11:49:01.204Z,53.65
2017-05-08T11:50:27.187Z,53.81
2017-05-08T11:52:03.546Z,54.01
2017-05-08T11:53:35.401Z,54.45
2017-05-08T11:55:11.808Z,55.04
2017-05-08T11:56:45.238Z,55.63
2017-05-08T11:58:20.842Z,56
2017-05-08T12:00:14.305Z,56.31
2017-05-08T12:01:40.676Z,56.38
2017-05-08T12:03:07.044Z,55.98
2017-05-08T12:04:34.233Z,55.66
2017-05-08T12:08:27.143Z,55.6
2017-05-08T12:11:20.073Z,55.75
2017-05-08T12:12:56.791Z,55.95
2017-05-08T12:16:19.923Z,55.67
2017-05-08T12:18:02.718Z,55.5
2017-05-08T12:19:33.450Z,55.39
2017-05-08T12:21:00.810Z,55.32
2017-05-08T12:22:33.674Z,55.46
2017-05-08T12:24:32.869Z,55.42
2017-05-08T12:36:12.176Z,57.82
2017-05-08T12:37:44.720Z,57.48
2017-05-08T12:40:44.214Z,56.85
2017-05-08T12:45:37.144Z,56.67
2017-05-08T12:47:06.729Z,56.6
2017-05-08T12:48:55.824Z,56.52
2017-05-08T12:50:40.562Z,56.35
2017-05-08T12:53:56.580Z,56.22
2017-05-08T12:55:22.622Z,56.22
2017-05-08T12:56:52.287Z,56.21
2017-05-08T12:58:36.872Z,56.07
2017-05-08T13:00:15.442Z,55.96
2017-05-08T13:01:42.062Z,55.93
2017-05-08T13:03:07.776Z,55.9
2017-05-08T13:06:09.697Z,56.16
2017-05-08T13:07:37.290Z,56.19
2017-05-08T13:09:06.379Z,56.16
2017-05-08T13:10:34.638Z,56.35
2017-05-08T13:12:00.498Z,56.26
2017-05-08T13:13:27.813Z,55.98
2017-05-08T13:14:53.334Z,55.76
2017-05-08T13:16:22.367Z,55.54
2017-05-08T13:18:01.620Z,55.36
2017-05-08T13:19:30.025Z,55.3
2017-05-08T13:20:59.099Z,55.33
2017-05-08T13:22:29.849Z,55.3
2017-05-08T13:34:41.593Z,55.49
2017-05-08T13:36:08.941Z,55.34
2017-05-08T13:37:44.075Z,55.18
2017-05-08T13:44:20.677Z,55.17
2017-05-08T13:45:48.068Z,55.38
2017-05-08T13:48:17.851Z,55.71
2017-05-08T13:49:53.074Z,55.88
2017-05-08T13:51:20.019Z,56.26
2017-05-08T13:54:08.439Z,56.58
2017-05-08T13:55:37.350Z,56.54
2017-05-08T13:58:50.589Z,56.67
2017-05-08T14:00:16.740Z,56.48
2017-05-08T14:01:44.129Z,56.41
2017-05-08T14:03:09.783Z,56.44
2017-05-08T14:04:39.222Z,56.49
2017-05-08T14:07:56.691Z,56.72
2017-05-08T14:09:28.213Z,56.85
2017-05-08T14:10:55.177Z,56.99
2017-05-08T14:12:32.730Z,57.09
2017-05-08T14:15:23.981Z,57.33
2017-05-08T14:28:37.393Z,58.42
2017-05-08T14:30:06.995Z,58.4
2017-05-08T14:31:37.470Z,58.32
2017-05-08T14:33:08.920Z,58.29
2017-05-08T14:34:45.631Z,58.27
2017-05-08T14:37:21.362Z,58.17
2017-05-08T14:38:49.246Z,58.27
2017-05-08T14:40:27.302Z,58.57
2017-05-08T14:42:04.219Z,58.89
2017-05-08T14:43:31.399Z,59.14
2017-05-08T14:44:58.508Z,59.33
2017-05-08T14:46:29.749Z,59.36
2017-05-08T14:47:58.531Z,59.24
2017-05-08T14:49:30.227Z,59.08
2017-05-08T14:51:07.503Z,58.87
2017-05-08T14:52:43.283Z,58.87
2017-05-08T14:56:11.495Z,58.94
2017-05-08T14:59:29.135Z,58.46
2017-05-08T15:00:55.456Z,58.43
2017-05-08T15:02:30.589Z,58.4
2017-05-08T15:04:01.315Z,58.36
2017-05-08T15:05:28.226Z,58.35
2017-05-08T15:07:04.932Z,58.28
2017-05-08T15:08:40.357Z,58.19
2017-05-08T15:10:11.501Z,58.15
2017-05-08T15:11:40.586Z,58.13
2017-05-08T15:13:07.934Z,58.05
2017-05-08T15:14:41.434Z,57.91
2017-05-08T15:16:11.186Z,57.84
2017-05-08T15:19:25.593Z,57.9
2017-05-08T15:20:54.244Z,57.86
2017-05-08T15:23:51.175Z,57.88
2017-05-08T15:27:02.920Z,58.06
2017-05-08T15:28:31.773Z,58.33
2017-05-08T15:30:06.938Z,58.57
2017-05-08T15:31:53.678Z,58.8
2017-05-08T15:33:42.714Z,58.98
2017-05-08T15:44:36.127Z,58.96
2017-05-08T15:46:13.705Z,59.04
2017-05-08T15:49:52.140Z,59.25
2017-05-08T15:54:47.097Z,59.07
2017-05-08T15:56:16.328Z,59.03
2017-05-08T15:59:06.544Z,59.1
2017-05-08T16:01:01.429Z,59.11
2017-05-08T16:06:22.470Z,59.19
2017-05-08T16:08:07.961Z,59.26
2017-05-08T16:09:55.631Z,59.31
2017-05-08T16:15:22.658Z,59.44
2017-05-08T16:17:09.862Z,59.41
2017-05-08T16:18:47.461Z,59.37
2017-05-08T16:20:24.928Z,59.34
2017-05-08T16:22:08.010Z,59.37
2017-05-08T16:25:18.247Z,59.34
2017-05-08T16:28:04.748Z,59.38
2017-05-08T16:32:58.952Z,59.39
2017-05-08T16:34:33.714Z,59.44
2017-05-08T16:36:07.950Z,59.5
2017-05-08T16:37:49.225Z,59.54
2017-05-08T16:39:38.283Z,59.55
2017-05-08T16:41:06.290Z,59.6
2017-05-08T16:42:59.012Z,59.7
2017-05-08T16:45:02.080Z,59.8
2017-05-08T16:46:28.628Z,59.94
2017-05-08T16:48:09.699Z,60.07
2017-05-08T16:53:35.043Z,59.97
2017-05-08T16:55:08.775Z,59.96
2017-05-08T16:58:54.411Z,60.06
2017-05-08T17:00:42.234Z,60.08
2017-05-08T17:02:26.154Z,60.11
2017-05-08T17:03:52.261Z,60.22
2017-05-08T17:05:34.490Z,60.22
2017-05-08T17:08:20.072Z,60.42
2017-05-08T17:09:46.919Z,60.53
2017-05-08T17:11:17.223Z,60.61
2017-05-08T17:12:54.901Z,60.69
2017-05-08T17:14:40.288Z,60.72
2017-05-08T17:16:36.822Z,60.68
2017-05-08T17:18:12.158Z,60.74
2017-05-08T17:19:57.740Z,60.81
2017-05-08T17:21:27.179Z,60.9
2017-05-08T17:24:44.079Z,61.08
2017-05-08T17:26:12.395Z,61.17
2017-05-08T17:28:15.091Z,61.17
2017-05-08T17:41:38.556Z,62.25
2017-05-08T17:44:46.867Z,62.06
2017-05-08T17:49:41.265Z,61.74
2017-05-08T17:51:10.529Z,61.71
2017-05-08T17:52:47.747Z,61.75
2017-05-08T17:54:26.668Z,61.76
2017-05-08T17:56:22.895Z,61.78
2017-05-08T17:58:07.716Z,61.71
2017-05-08T18:01:52.935Z,61.68
2017-05-08T18:03:40.048Z,61.69
2017-05-08T18:05:07.347Z,61.72
2017-05-08T18:06:32.186Z,61.76
2017-05-08T18:08:00.571Z,61.79
2017-05-08T18:09:36.264Z,61.82
2017-05-08T18:11:01.641Z,61.81
2017-05-08T18:14:03.201Z,61.81
2017-05-08T18:15:29.383Z,61.83
2017-05-08T18:17:07.177Z,61.85
2017-05-08T18:18:33.446Z,61.89
2017-05-08T18:20:01.089Z,61.93
2017-05-08T18:21:27.356Z,61.97
2017-05-08T18:22:52.088Z,62.01
2017-05-08T18:24:21.275Z,62.04
2017-05-08T18:25:49.645Z,62.06
2017-05-08T18:27:19.895Z,62.06
2017-05-08T18:28:45.765Z,62.06
2017-05-08T18:30:14.137Z,62.06
2017-05-08T18:31:41.808Z,62.06
2017-05-08T18:33:07.252Z,62.08
2017-05-08T18:36:13.221Z,62.12
2017-05-08T18:37:44.521Z,62.14
2017-05-08T18:39:13.778Z,62.14
2017-05-08T18:40:39.935Z,62.17
2017-05-08T18:43:43.984Z,62.14
2017-05-08T18:45:15.317Z,62.12
2017-05-08T18:46:40.578Z,62.12
2017-05-08T18:48:05.572Z,62.1
2017-05-08T18:49:35.383Z,62.15
2017-05-08T18:51:26.070Z,62.11
2017-05-08T18:53:00.013Z,62.08
2017-05-08T18:54:40.858Z,62.07
2017-05-08T18:56:07.519Z,62.11
2017-05-08T18:59:08.651Z,62.19
2017-05-08T19:00:48.276Z,62.21
2017-05-08T19:03:55.863Z,62.21
2017-05-08T19:05:25.055Z,62.21
2017-05-08T19:06:56.969Z,62.23
2017-05-08T19:10:11.876Z,62.27
2017-05-08T19:11:40.458Z,62.27
2017-05-08T19:14:30.232Z,62.33
2017-05-08T19:17:11.834Z,62.41
2017-05-08T19:20:24.427Z,62.4
2017-05-08T19:23:24.872Z,62.35
2017-05-08T19:25:01.556Z,62.38
2017-05-08T19:28:23.486Z,62.34
2017-05-08T19:30:17.971Z,62.32
2017-05-08T19:31:45.730Z,62.31
2017-05-08T19:33:21.907Z,62.33
2017-05-08T19:34:52.516Z,62.32
2017-05-08T19:36:23.957Z,62.35
2017-05-08T19:37:57.647Z,62.39
2017-05-08T19:41:04.893Z,62.45
2017-05-08T19:42:48.872Z,62.44
2017-05-08T19:44:20.639Z,62.45
2017-05-08T19:46:04.511Z,62.46
2017-05-08T19:47:46.712Z,62.46
2017-05-08T19:50:52.083Z,62.46
2017-05-08T19:52:18.141Z,62.51
2017-05-08T19:53:55.992Z,62.51
2017-05-08T19:55:22.959Z,62.52
2017-05-08T19:56:47.969Z,62.55
2017-05-08T20:01:10.399Z,62.68
2017-05-08T20:06:09.604Z,62.72
2017-05-08T20:11:00.537Z,62.58
2017-05-08T20:17:32.067Z,62.68
2017-05-08T20:19:20.083Z,62.65
2017-05-08T20:20:58.179Z,62.64
2017-05-08T20:22:31.339Z,62.63
2017-05-08T20:25:19.121Z,62.42
2017-05-08T20:26:46.779Z,62.38
2017-05-08T20:28:11.463Z,62.43
2017-05-08T20:31:21.171Z,62.53
2017-05-08T20:32:48.615Z,62.56
2017-05-08T20:35:38.740Z,62.67
2017-05-08T20:37:14.527Z,62.73
2017-05-08T20:39:10.983Z,62.69
2017-05-08T20:40:45.185Z,62.69
2017-05-08T20:42:32.445Z,62.72
2017-05-08T20:45:52.540Z,62.73
2017-05-08T20:53:09.284Z,62.73
2017-05-08T21:43:54.024Z,62.96
2017-05-08T22:19:06.141Z,62.92
2017-05-08T22:22:11.783Z,62.86
